Stapelmoor — V2BU8 — position and weather

sailwx.info

Track history (hours):
 
Tides and Currents Weather Stations Pressure Air Temp Water Temp Dewpoint Dewpoint Depression Visibility Wind Speed Wind Dir Waves Ship Positions

Stapelmoor

Last reported at 2017-Nov-17 20:03 UTC. Time now 2017-Nov-19 08:57 UTC.
Position N 38°47' E 015°01'.

Length 80 m; draft 4.3 m.

Type: Ship. MMSI: 304932000.

Date/timePositionNaut miles runAvg speedWind from/ knotsBaromVisibWave heightAir tempDewpointWater temp
2017-Nov-17 20:03N 38°47' E 015°01'2 9.1
2017-Nov-17 19:48N 38°46' E 015°04'3 9.2
2017-Nov-17 19:30N 38°44' E 015°06'5 9.2
2017-Nov-17 19:00N 38°40' E 015°10'5 9.2
2017-Nov-17 18:30N 38°37' E 015°15'5 9.2
2017-Nov-17 18:00N 38°34' E 015°19'5 9.3
2017-Nov-17 17:30N 38°31' E 015°23'5 9.2
2017-Nov-17 16:59N 38°28' E 015°28'4 8.9
2017-Nov-17 16:30N 38°25' E 015°32'5 9.0
2017-Nov-17 16:00N 38°22' E 015°36'5 9.3
2017-Nov-17 15:31N 38°19' E 015°40'4 7.3
2017-Nov-17 15:00N 38°15' E 015°39'4 8.9
2017-Nov-17 14:30N 38°11' E 015°37'4 8.4
2017-Nov-17 14:00N 38°07' E 015°36'4 8.9
2017-Nov-17 13:30N 38°03' E 015°35'5 9.2
2017-Nov-17 13:01N 37°58' E 015°37'5 9.6
2017-Nov-17 12:30N 37°55' E 015°41'5 9.5
2017-Nov-17 12:01N 37°53' E 015°47'510.0
2017-Nov-17 11:30N 37°51' E 015°53'5 9.5
2017-Nov-17 10:56N 37°50' E 015°60'  
Track history (hours):
 
Tides and Currents Weather Stations Pressure Air Temp Water Temp Dewpoint Dewpoint Depression Visibility Wind Speed Wind Dir Waves Ship Positions

Stapelmoor

Last reported at 2017-Nov-17 20:03 UTC. Time now 2017-Nov-19 08:57 UTC.
Position N 38°47' E 015°01'.

Length 80 m; draft 4.3 m.

Type: Ship. MMSI: 304932000.

Date/timePositionNaut miles runAvg speedWind from/ knotsBaromVisibWave heightAir tempDewpointWater temp
2017-Nov-17 20:03N 38°47' E 015°01'2 9.1
2017-Nov-17 19:48N 38°46' E 015°04'3 9.2
2017-Nov-17 19:30N 38°44' E 015°06'5 9.2
2017-Nov-17 19:00N 38°40' E 015°10'5 9.2
2017-Nov-17 18:30N 38°37' E 015°15'5 9.2
2017-Nov-17 18:00N 38°34' E 015°19'5 9.3
2017-Nov-17 17:30N 38°31' E 015°23'5 9.2
2017-Nov-17 16:59N 38°28' E 015°28'4 8.9
2017-Nov-17 16:30N 38°25' E 015°32'5 9.0
2017-Nov-17 16:00N 38°22' E 015°36'5 9.3
2017-Nov-17 15:31N 38°19' E 015°40'4 7.3
2017-Nov-17 15:00N 38°15' E 015°39'4 8.9
2017-Nov-17 14:30N 38°11' E 015°37'4 8.4
2017-Nov-17 14:00N 38°07' E 015°36'4 8.9
2017-Nov-17 13:30N 38°03' E 015°35'5 9.2
2017-Nov-17 13:01N 37°58' E 015°37'5 9.6
2017-Nov-17 12:30N 37°55' E 015°41'5 9.5
2017-Nov-17 12:01N 37°53' E 015°47'510.0
2017-Nov-17 11:30N 37°51' E 015°53'5 9.5
2017-Nov-17 10:56N 37°50' E 015°60'  

Dump ship's entire track history